sensor_id;sensor_type;location;lat;lon;timestamp;P1;durP1;ratioP1;P2;durP2;ratioP2
82475;SDS011;72099;43.176;76.872;2023-12-28T00:02:14;5.05;;;2.85;;
82475;SDS011;72099;43.176;76.872;2023-12-28T00:08:16;4.43;;;2.40;;
82475;SDS011;72099;43.176;76.872;2023-12-28T00:11:17;4.78;;;2.70;;
82475;SDS011;72099;43.176;76.872;2023-12-28T00:14:18;3.70;;;2.25;;
82475;SDS011;72099;43.176;76.872;2023-12-28T00:17:19;4.82;;;2.22;;
82475;SDS011;72099;43.176;76.872;2023-12-28T00:20:20;4.95;;;2.90;;
82475;SDS011;72099;43.176;76.872;2023-12-28T00:23:20;5.43;;;2.95;;
82475;SDS011;72099;43.176;76.872;2023-12-28T00:26:21;5.82;;;2.78;;
82475;SDS011;72099;43.176;76.872;2023-12-28T00:29:22;5.78;;;3.00;;
82475;SDS011;72099;43.176;76.872;2023-12-28T00:32:23;8.43;;;3.03;;
82475;SDS011;72099;43.176;76.872;2023-12-28T00:35:24;6.93;;;2.58;;
82475;SDS011;72099;43.176;76.872;2023-12-28T00:38:25;5.45;;;2.47;;
82475;SDS011;72099;43.176;76.872;2023-12-28T00:41:25;5.53;;;2.92;;
82475;SDS011;72099;43.176;76.872;2023-12-28T00:44:26;5.35;;;3.00;;
82475;SDS011;72099;43.176;76.872;2023-12-28T00:47:27;7.22;;;2.97;;
82475;SDS011;72099;43.176;76.872;2023-12-28T00:50:28;6.68;;;2.70;;
82475;SDS011;72099;43.176;76.872;2023-12-28T00:53:31;7.63;;;2.92;;
82475;SDS011;72099;43.176;76.872;2023-12-28T00:56:32;7.53;;;2.63;;
82475;SDS011;72099;43.176;76.872;2023-12-28T00:59:33;5.40;;;2.50;;
82475;SDS011;72099;43.176;76.872;2023-12-28T01:02:34;4.57;;;2.50;;
82475;SDS011;72099;43.176;76.872;2023-12-28T01:05:35;5.00;;;2.72;;
82475;SDS011;72099;43.176;76.872;2023-12-28T01:08:35;7.30;;;2.90;;
82475;SDS011;72099;43.176;76.872;2023-12-28T01:11:36;5.32;;;3.03;;
82475;SDS011;72099;43.176;76.872;2023-12-28T01:14:37;8.25;;;2.92;;
82475;SDS011;72099;43.176;76.872;2023-12-28T01:17:38;8.45;;;3.13;;
82475;SDS011;72099;43.176;76.872;2023-12-28T01:20:39;7.57;;;3.75;;
82475;SDS011;72099;43.176;76.872;2023-12-28T01:23:40;6.85;;;3.33;;
82475;SDS011;72099;43.176;76.872;2023-12-28T01:26:41;9.25;;;4.43;;
82475;SDS011;72099;43.176;76.872;2023-12-28T01:29:41;6.32;;;3.80;;
82475;SDS011;72099;43.176;76.872;2023-12-28T01:32:42;7.03;;;3.45;;
82475;SDS011;72099;43.176;76.872;2023-12-28T01:35:43;4.93;;;3.25;;
82475;SDS011;72099;43.176;76.872;2023-12-28T01:38:44;6.43;;;3.08;;
82475;SDS011;72099;43.176;76.872;2023-12-28T01:41:46;6.00;;;3.53;;
82475;SDS011;72099;43.176;76.872;2023-12-28T01:44:47;5.70;;;2.80;;
82475;SDS011;72099;43.176;76.872;2023-12-28T01:47:47;3.72;;;2.42;;
82475;SDS011;72099;43.176;76.872;2023-12-28T01:50:50;6.80;;;2.95;;
82475;SDS011;72099;43.176;76.872;2023-12-28T01:53:51;4.90;;;2.45;;
82475;SDS011;72099;43.176;76.872;2023-12-28T01:56:53;4.85;;;2.50;;
82475;SDS011;72099;43.176;76.872;2023-12-28T01:59:55;3.58;;;1.77;;
82475;SDS011;72099;43.176;76.872;2023-12-28T02:02:58;7.65;;;3.65;;
82475;SDS011;72099;43.176;76.872;2023-12-28T02:09:01;3.72;;;1.65;;
82475;SDS011;72099;43.176;76.872;2023-12-28T02:12:02;2.85;;;1.80;;
82475;SDS011;72099;43.176;76.872;2023-12-28T02:15:03;4.30;;;2.45;;
82475;SDS011;72099;43.176;76.872;2023-12-28T02:18:11;3.20;;;1.88;;
82475;SDS011;72099;43.176;76.872;2023-12-28T02:21:17;3.17;;;1.92;;
82475;SDS011;72099;43.176;76.872;2023-12-28T02:24:20;5.18;;;2.42;;
82475;SDS011;72099;43.176;76.872;2023-12-28T02:27:23;4.18;;;2.10;;
82475;SDS011;72099;43.176;76.872;2023-12-28T02:30:24;4.60;;;1.98;;
82475;SDS011;72099;43.176;76.872;2023-12-28T02:36:34;4.38;;;2.30;;
82475;SDS011;72099;43.176;76.872;2023-12-28T02:39:38;3.40;;;1.92;;
82475;SDS011;72099;43.176;76.872;2023-12-28T02:42:40;5.50;;;2.60;;
82475;SDS011;72099;43.176;76.872;2023-12-28T02:45:41;8.30;;;2.78;;
82475;SDS011;72099;43.176;76.872;2023-12-28T02:48:43;5.35;;;2.65;;
82475;SDS011;72099;43.176;76.872;2023-12-28T02:51:44;5.32;;;2.50;;
82475;SDS011;72099;43.176;76.872;2023-12-28T02:54:45;6.82;;;3.60;;
82475;SDS011;72099;43.176;76.872;2023-12-28T02:57:46;4.72;;;2.60;;
82475;SDS011;72099;43.176;76.872;2023-12-28T03:00:46;6.60;;;2.72;;
82475;SDS011;72099;43.176;76.872;2023-12-28T03:03:48;5.53;;;2.65;;
82475;SDS011;72099;43.176;76.872;2023-12-28T03:06:49;4.50;;;2.67;;
82475;SDS011;72099;43.176;76.872;2023-12-28T03:09:50;7.28;;;3.03;;
82475;SDS011;72099;43.176;76.872;2023-12-28T03:12:51;6.57;;;3.00;;
82475;SDS011;72099;43.176;76.872;2023-12-28T03:15:52;4.55;;;2.80;;
82475;SDS011;72099;43.176;76.872;2023-12-28T03:18:53;8.63;;;3.17;;
82475;SDS011;72099;43.176;76.872;2023-12-28T03:21:53;4.25;;;2.53;;
82475;SDS011;72099;43.176;76.872;2023-12-28T03:24:54;4.85;;;2.42;;
82475;SDS011;72099;43.176;76.872;2023-12-28T03:27:55;5.45;;;3.08;;
82475;SDS011;72099;43.176;76.872;2023-12-28T03:30:56;5.45;;;3.63;;
82475;SDS011;72099;43.176;76.872;2023-12-28T03:33:58;8.30;;;3.17;;
82475;SDS011;72099;43.176;76.872;2023-12-28T03:37:01;9.68;;;3.58;;
82475;SDS011;72099;43.176;76.872;2023-12-28T03:40:02;10.85;;;5.35;;
82475;SDS011;72099;43.176;76.872;2023-12-28T03:43:04;17.45;;;5.20;;
82475;SDS011;72099;43.176;76.872;2023-12-28T03:46:05;8.10;;;4.15;;
82475;SDS011;72099;43.176;76.872;2023-12-28T03:49:05;8.15;;;3.90;;
82475;SDS011;72099;43.176;76.872;2023-12-28T03:52:06;6.78;;;3.65;;
82475;SDS011;72099;43.176;76.872;2023-12-28T03:55:07;10.07;;;3.50;;
82475;SDS011;72099;43.176;76.872;2023-12-28T03:58:08;6.60;;;3.50;;
82475;SDS011;72099;43.176;76.872;2023-12-28T04:01:09;6.40;;;3.83;;
82475;SDS011;72099;43.176;76.872;2023-12-28T04:04:10;8.45;;;3.90;;
82475;SDS011;72099;43.176;76.872;2023-12-28T04:07:11;5.07;;;3.67;;
82475;SDS011;72099;43.176;76.872;2023-12-28T04:10:12;7.00;;;3.72;;
82475;SDS011;72099;43.176;76.872;2023-12-28T04:13:13;8.00;;;4.00;;
82475;SDS011;72099;43.176;76.872;2023-12-28T04:16:14;6.78;;;3.90;;
82475;SDS011;72099;43.176;76.872;2023-12-28T04:19:15;7.72;;;3.13;;
82475;SDS011;72099;43.176;76.872;2023-12-28T04:22:16;6.35;;;3.50;;
82475;SDS011;72099;43.176;76.872;2023-12-28T04:25:17;5.57;;;3.13;;
82475;SDS011;72099;43.176;76.872;2023-12-28T04:28:18;5.43;;;3.42;;
82475;SDS011;72099;43.176;76.872;2023-12-28T04:31:18;7.32;;;3.35;;
82475;SDS011;72099;43.176;76.872;2023-12-28T04:34:19;8.75;;;4.47;;
82475;SDS011;72099;43.176;76.872;2023-12-28T04:37:20;7.75;;;3.88;;
82475;SDS011;72099;43.176;76.872;2023-12-28T04:40:21;6.85;;;3.63;;
82475;SDS011;72099;43.176;76.872;2023-12-28T04:43:22;4.97;;;3.55;;
82475;SDS011;72099;43.176;76.872;2023-12-28T04:46:23;6.53;;;3.13;;
82475;SDS011;72099;43.176;76.872;2023-12-28T04:49:24;5.72;;;2.90;;
82475;SDS011;72099;43.176;76.872;2023-12-28T04:52:25;4.38;;;2.70;;
82475;SDS011;72099;43.176;76.872;2023-12-28T04:55:26;4.05;;;2.83;;
82475;SDS011;72099;43.176;76.872;2023-12-28T04:58:27;6.90;;;3.22;;
82475;SDS011;72099;43.176;76.872;2023-12-28T05:01:28;8.15;;;3.33;;
82475;SDS011;72099;43.176;76.872;2023-12-28T05:04:31;7.53;;;3.17;;
82475;SDS011;72099;43.176;76.872;2023-12-28T05:07:32;5.85;;;2.80;;
82475;SDS011;72099;43.176;76.872;2023-12-28T05:10:33;5.43;;;3.15;;
82475;SDS011;72099;43.176;76.872;2023-12-28T05:13:34;5.65;;;3.00;;
82475;SDS011;72099;43.176;76.872;2023-12-28T05:16:35;5.53;;;3.40;;
82475;SDS011;72099;43.176;76.872;2023-12-28T05:19:36;6.68;;;3.13;;
82475;SDS011;72099;43.176;76.872;2023-12-28T05:22:36;6.25;;;3.60;;
82475;SDS011;72099;43.176;76.872;2023-12-28T05:25:37;5.00;;;3.40;;
82475;SDS011;72099;43.176;76.872;2023-12-28T05:28:38;4.75;;;3.25;;
82475;SDS011;72099;43.176;76.872;2023-12-28T05:31:39;5.30;;;3.20;;
82475;SDS011;72099;43.176;76.872;2023-12-28T05:34:40;4.22;;;2.88;;
82475;SDS011;72099;43.176;76.872;2023-12-28T05:37:40;4.32;;;2.78;;
82475;SDS011;72099;43.176;76.872;2023-12-28T05:40:41;5.53;;;2.92;;
82475;SDS011;72099;43.176;76.872;2023-12-28T05:43:44;4.35;;;2.67;;
82475;SDS011;72099;43.176;76.872;2023-12-28T05:46:45;5.47;;;2.83;;
82475;SDS011;72099;43.176;76.872;2023-12-28T05:49:46;6.85;;;3.70;;
82475;SDS011;72099;43.176;76.872;2023-12-28T05:52:47;8.77;;;3.50;;
82475;SDS011;72099;43.176;76.872;2023-12-28T05:55:48;4.97;;;3.00;;
82475;SDS011;72099;43.176;76.872;2023-12-28T05:58:49;4.18;;;2.83;;
82475;SDS011;72099;43.176;76.872;2023-12-28T06:01:49;4.68;;;2.80;;
82475;SDS011;72099;43.176;76.872;2023-12-28T06:04:50;4.97;;;2.90;;
82475;SDS011;72099;43.176;76.872;2023-12-28T06:07:51;5.40;;;2.88;;
82475;SDS011;72099;43.176;76.872;2023-12-28T06:10:52;6.35;;;3.03;;
82475;SDS011;72099;43.176;76.872;2023-12-28T06:13:53;6.40;;;2.80;;
82475;SDS011;72099;43.176;76.872;2023-12-28T06:16:53;6.35;;;2.80;;
82475;SDS011;72099;43.176;76.872;2023-12-28T06:22:55;4.80;;;3.50;;
82475;SDS011;72099;43.176;76.872;2023-12-28T06:25:56;5.55;;;3.10;;
82475;SDS011;72099;43.176;76.872;2023-12-28T06:28:57;7.72;;;3.42;;
82475;SDS011;72099;43.176;76.872;2023-12-28T06:31:57;6.50;;;4.20;;
82475;SDS011;72099;43.176;76.872;2023-12-28T06:34:58;5.40;;;2.83;;
82475;SDS011;72099;43.176;76.872;2023-12-28T06:37:59;5.38;;;3.47;;
82475;SDS011;72099;43.176;76.872;2023-12-28T06:41:00;5.75;;;2.95;;
82475;SDS011;72099;43.176;76.872;2023-12-28T06:44:01;6.72;;;3.28;;
82475;SDS011;72099;43.176;76.872;2023-12-28T06:47:01;6.88;;;3.17;;
82475;SDS011;72099;43.176;76.872;2023-12-28T06:50:03;4.00;;;2.65;;
82475;SDS011;72099;43.176;76.872;2023-12-28T06:53:04;5.85;;;3.10;;
82475;SDS011;72099;43.176;76.872;2023-12-28T06:56:05;3.60;;;2.67;;
82475;SDS011;72099;43.176;76.872;2023-12-28T06:59:06;5.43;;;3.17;;
82475;SDS011;72099;43.176;76.872;2023-12-28T07:02:06;5.13;;;3.25;;
82475;SDS011;72099;43.176;76.872;2023-12-28T07:05:07;6.38;;;3.03;;
82475;SDS011;72099;43.176;76.872;2023-12-28T07:08:08;4.65;;;3.30;;
82475;SDS011;72099;43.176;76.872;2023-12-28T07:11:09;5.15;;;3.45;;
82475;SDS011;72099;43.176;76.872;2023-12-28T07:14:11;8.05;;;3.40;;
82475;SDS011;72099;43.176;76.872;2023-12-28T07:17:12;5.07;;;3.28;;
82475;SDS011;72099;43.176;76.872;2023-12-28T07:20:17;7.82;;;3.80;;
82475;SDS011;72099;43.176;76.872;2023-12-28T07:23:18;8.35;;;4.13;;
82475;SDS011;72099;43.176;76.872;2023-12-28T07:26:19;9.45;;;3.85;;
82475;SDS011;72099;43.176;76.872;2023-12-28T07:29:19;6.25;;;4.40;;
82475;SDS011;72099;43.176;76.872;2023-12-28T07:32:20;9.15;;;3.80;;
82475;SDS011;72099;43.176;76.872;2023-12-28T07:35:23;6.78;;;4.55;;
82475;SDS011;72099;43.176;76.872;2023-12-28T07:38:24;6.97;;;4.30;;
82475;SDS011;72099;43.176;76.872;2023-12-28T07:41:25;8.38;;;5.15;;
82475;SDS011;72099;43.176;76.872;2023-12-28T07:44:28;7.53;;;4.38;;
82475;SDS011;72099;43.176;76.872;2023-12-28T07:47:29;7.18;;;4.25;;
82475;SDS011;72099;43.176;76.872;2023-12-28T07:50:30;6.93;;;4.20;;
82475;SDS011;72099;43.176;76.872;2023-12-28T07:53:31;8.05;;;4.28;;
82475;SDS011;72099;43.176;76.872;2023-12-28T07:56:33;7.90;;;4.38;;
82475;SDS011;72099;43.176;76.872;2023-12-28T07:59:34;10.35;;;4.60;;
82475;SDS011;72099;43.176;76.872;2023-12-28T08:02:35;8.60;;;4.72;;
82475;SDS011;72099;43.176;76.872;2023-12-28T08:08:54;9.15;;;4.72;;
82475;SDS011;72099;43.176;76.872;2023-12-28T08:11:55;6.03;;;3.92;;
82475;SDS011;72099;43.176;76.872;2023-12-28T08:14:56;10.95;;;4.60;;
82475;SDS011;72099;43.176;76.872;2023-12-28T08:17:57;7.35;;;4.20;;
82475;SDS011;72099;43.176;76.872;2023-12-28T08:20:58;10.25;;;4.55;;
82475;SDS011;72099;43.176;76.872;2023-12-28T08:24:00;8.32;;;4.20;;
82475;SDS011;72099;43.176;76.872;2023-12-28T08:27:01;6.18;;;4.30;;
82475;SDS011;72099;43.176;76.872;2023-12-28T08:30:03;6.20;;;4.20;;
82475;SDS011;72099;43.176;76.872;2023-12-28T08:36:12;8.13;;;4.50;;
82475;SDS011;72099;43.176;76.872;2023-12-28T08:39:13;8.80;;;4.20;;
82475;SDS011;72099;43.176;76.872;2023-12-28T08:42:14;9.32;;;4.55;;
82475;SDS011;72099;43.176;76.872;2023-12-28T08:48:38;7.47;;;5.10;;
82475;SDS011;72099;43.176;76.872;2023-12-28T11:27:39;6.55;;;3.45;;
82475;SDS011;72099;43.176;76.872;2023-12-28T11:30:43;6.28;;;3.00;;
82475;SDS011;72099;43.176;76.872;2023-12-28T11:33:47;6.22;;;3.47;;
82475;SDS011;72099;43.176;76.872;2023-12-28T11:36:53;7.35;;;3.67;;
82475;SDS011;72099;43.176;76.872;2023-12-28T11:39:56;16.77;;;5.53;;
82475;SDS011;72099;43.176;76.872;2023-12-28T11:42:58;12.75;;;4.53;;
82475;SDS011;72099;43.176;76.872;2023-12-28T11:45:59;10.32;;;4.07;;
82475;SDS011;72099;43.176;76.872;2023-12-28T11:49:07;10.18;;;5.13;;
82475;SDS011;72099;43.176;76.872;2023-12-28T11:52:09;16.75;;;4.65;;
82475;SDS011;72099;43.176;76.872;2023-12-28T11:55:11;15.85;;;5.18;;
82475;SDS011;72099;43.176;76.872;2023-12-28T11:58:21;16.50;;;5.18;;
82475;SDS011;72099;43.176;76.872;2023-12-28T12:01:22;22.13;;;6.28;;
82475;SDS011;72099;43.176;76.872;2023-12-28T12:04:23;18.13;;;6.97;;
82475;SDS011;72099;43.176;76.872;2023-12-28T12:07:24;26.25;;;8.05;;
82475;SDS011;72099;43.176;76.872;2023-12-28T12:10:26;21.60;;;6.88;;
82475;SDS011;72099;43.176;76.872;2023-12-28T12:13:27;31.30;;;8.98;;
82475;SDS011;72099;43.176;76.872;2023-12-28T12:16:29;27.50;;;8.25;;
82475;SDS011;72099;43.176;76.872;2023-12-28T12:19:31;30.30;;;10.20;;
82475;SDS011;72099;43.176;76.872;2023-12-28T12:35:19;18.25;;;9.10;;
82475;SDS011;72099;43.176;76.872;2023-12-28T12:38:21;18.08;;;8.38;;
82475;SDS011;72099;43.176;76.872;2023-12-28T12:41:23;17.30;;;8.85;;
82475;SDS011;72099;43.176;76.872;2023-12-28T12:44:24;16.27;;;8.70;;
82475;SDS011;72099;43.176;76.872;2023-12-28T12:47:25;21.52;;;9.73;;
82475;SDS011;72099;43.176;76.872;2023-12-28T12:50:26;17.75;;;9.32;;
82475;SDS011;72099;43.176;76.872;2023-12-28T12:53:32;18.27;;;8.60;;
82475;SDS011;72099;43.176;76.872;2023-12-28T12:56:34;15.15;;;7.93;;
82475;SDS011;72099;43.176;76.872;2023-12-28T12:59:35;13.85;;;7.28;;
82475;SDS011;72099;43.176;76.872;2023-12-28T13:02:36;13.68;;;6.80;;
82475;SDS011;72099;43.176;76.872;2023-12-28T13:05:37;13.88;;;6.95;;
82475;SDS011;72099;43.176;76.872;2023-12-28T13:08:38;12.50;;;6.00;;
82475;SDS011;72099;43.176;76.872;2023-12-28T13:11:39;13.15;;;6.70;;
82475;SDS011;72099;43.176;76.872;2023-12-28T13:14:40;12.18;;;5.43;;
82475;SDS011;72099;43.176;76.872;2023-12-28T13:17:41;12.02;;;6.15;;
82475;SDS011;72099;43.176;76.872;2023-12-28T13:20:43;13.30;;;6.78;;
82475;SDS011;72099;43.176;76.872;2023-12-28T13:23:46;14.80;;;6.47;;
82475;SDS011;72099;43.176;76.872;2023-12-28T13:26:46;12.82;;;5.65;;
82475;SDS011;72099;43.176;76.872;2023-12-28T13:29:47;11.18;;;5.55;;
82475;SDS011;72099;43.176;76.872;2023-12-28T13:32:48;15.05;;;6.95;;
82475;SDS011;72099;43.176;76.872;2023-12-28T13:35:49;11.57;;;5.78;;
82475;SDS011;72099;43.176;76.872;2023-12-28T13:38:50;12.02;;;5.60;;
82475;SDS011;72099;43.176;76.872;2023-12-28T13:41:51;8.20;;;4.80;;
82475;SDS011;72099;43.176;76.872;2023-12-28T13:44:52;9.75;;;5.40;;
82475;SDS011;72099;43.176;76.872;2023-12-28T13:47:53;10.35;;;5.50;;
82475;SDS011;72099;43.176;76.872;2023-12-28T13:50:54;12.88;;;4.93;;
82475;SDS011;72099;43.176;76.872;2023-12-28T13:53:55;10.30;;;4.70;;
82475;SDS011;72099;43.176;76.872;2023-12-28T13:56:55;11.27;;;5.25;;
82475;SDS011;72099;43.176;76.872;2023-12-28T13:59:58;11.35;;;4.93;;
82475;SDS011;72099;43.176;76.872;2023-12-28T14:03:01;8.82;;;4.78;;
82475;SDS011;72099;43.176;76.872;2023-12-28T14:06:02;13.27;;;5.45;;
82475;SDS011;72099;43.176;76.872;2023-12-28T14:09:03;12.02;;;5.57;;
82475;SDS011;72099;43.176;76.872;2023-12-28T14:12:04;10.90;;;5.72;;
82475;SDS011;72099;43.176;76.872;2023-12-28T14:15:06;13.02;;;5.13;;
82475;SDS011;72099;43.176;76.872;2023-12-28T14:18:07;15.38;;;5.93;;
82475;SDS011;72099;43.176;76.872;2023-12-28T14:21:09;11.63;;;5.63;;
82475;SDS011;72099;43.176;76.872;2023-12-28T14:24:10;14.43;;;5.32;;
82475;SDS011;72099;43.176;76.872;2023-12-28T14:27:11;12.93;;;6.50;;
82475;SDS011;72099;43.176;76.872;2023-12-28T14:30:12;13.48;;;6.32;;
82475;SDS011;72099;43.176;76.872;2023-12-28T14:33:14;18.40;;;6.90;;
82475;SDS011;72099;43.176;76.872;2023-12-28T14:36:20;21.70;;;8.00;;
82475;SDS011;72099;43.176;76.872;2023-12-28T14:39:22;24.30;;;8.90;;
82475;SDS011;72099;43.176;76.872;2023-12-28T14:42:23;18.00;;;8.30;;
82475;SDS011;72099;43.176;76.872;2023-12-28T14:45:24;20.27;;;8.50;;
82475;SDS011;72099;43.176;76.872;2023-12-28T14:48:25;22.30;;;9.48;;
82475;SDS011;72099;43.176;76.872;2023-12-28T14:51:26;23.67;;;9.43;;
82475;SDS011;72099;43.176;76.872;2023-12-28T14:54:28;19.25;;;7.55;;
82475;SDS011;72099;43.176;76.872;2023-12-28T14:57:29;20.42;;;8.55;;
82475;SDS011;72099;43.176;76.872;2023-12-28T15:00:30;19.88;;;8.65;;
82475;SDS011;72099;43.176;76.872;2023-12-28T15:03:31;19.88;;;8.48;;
82475;SDS011;72099;43.176;76.872;2023-12-28T15:06:32;17.65;;;7.55;;
82475;SDS011;72099;43.176;76.872;2023-12-28T15:09:33;16.77;;;7.72;;
82475;SDS011;72099;43.176;76.872;2023-12-28T15:12:34;17.25;;;7.55;;
82475;SDS011;72099;43.176;76.872;2023-12-28T15:15:35;15.95;;;6.63;;
82475;SDS011;72099;43.176;76.872;2023-12-28T15:18:37;15.73;;;6.88;;
82475;SDS011;72099;43.176;76.872;2023-12-28T15:21:40;15.25;;;7.25;;
82475;SDS011;72099;43.176;76.872;2023-12-28T15:24:41;11.65;;;6.20;;
82475;SDS011;72099;43.176;76.872;2023-12-28T15:31:26;11.10;;;5.82;;
82475;SDS011;72099;43.176;76.872;2023-12-28T15:34:27;15.68;;;6.82;;
82475;SDS011;72099;43.176;76.872;2023-12-28T15:37:28;15.90;;;6.63;;
82475;SDS011;72099;43.176;76.872;2023-12-28T15:40:31;24.75;;;9.93;;
82475;SDS011;72099;43.176;76.872;2023-12-28T15:43:32;29.77;;;12.25;;
82475;SDS011;72099;43.176;76.872;2023-12-28T15:46:34;41.70;;;14.65;;
82475;SDS011;72099;43.176;76.872;2023-12-28T15:49:35;28.88;;;12.15;;
82475;SDS011;72099;43.176;76.872;2023-12-28T15:52:36;29.25;;;11.02;;
82475;SDS011;72099;43.176;76.872;2023-12-28T15:55:37;21.98;;;7.57;;
82475;SDS011;72099;43.176;76.872;2023-12-28T16:01:45;17.20;;;6.13;;
82475;SDS011;72099;43.176;76.872;2023-12-28T16:04:46;14.98;;;6.78;;
82475;SDS011;72099;43.176;76.872;2023-12-28T16:07:47;15.20;;;5.10;;
82475;SDS011;72099;43.176;76.872;2023-12-28T16:10:48;16.27;;;6.32;;
82475;SDS011;72099;43.176;76.872;2023-12-28T16:13:49;13.30;;;5.78;;
82475;SDS011;72099;43.176;76.872;2023-12-28T16:16:50;10.30;;;4.57;;
82475;SDS011;72099;43.176;76.872;2023-12-28T16:22:52;10.00;;;4.15;;
82475;SDS011;72099;43.176;76.872;2023-12-28T16:25:54;14.90;;;5.68;;
82475;SDS011;72099;43.176;76.872;2023-12-28T16:28:56;12.48;;;4.82;;
82475;SDS011;72099;43.176;76.872;2023-12-28T16:31:57;15.30;;;5.53;;
82475;SDS011;72099;43.176;76.872;2023-12-28T16:35:00;9.18;;;4.57;;
82475;SDS011;72099;43.176;76.872;2023-12-28T16:41:03;10.65;;;4.30;;
82475;SDS011;72099;43.176;76.872;2023-12-28T16:44:05;7.95;;;3.45;;
82475;SDS011;72099;43.176;76.872;2023-12-28T16:47:06;7.18;;;3.42;;
82475;SDS011;72099;43.176;76.872;2023-12-28T16:50:07;10.65;;;3.90;;
82475;SDS011;72099;43.176;76.872;2023-12-28T16:53:09;7.43;;;3.08;;
82475;SDS011;72099;43.176;76.872;2023-12-28T16:56:10;7.32;;;3.20;;
82475;SDS011;72099;43.176;76.872;2023-12-28T16:59:13;8.93;;;4.63;;
82475;SDS011;72099;43.176;76.872;2023-12-28T17:02:15;24.92;;;8.35;;
82475;SDS011;72099;43.176;76.872;2023-12-28T17:05:16;14.32;;;5.53;;
82475;SDS011;72099;43.176;76.872;2023-12-28T17:08:18;14.18;;;5.65;;
82475;SDS011;72099;43.176;76.872;2023-12-28T17:11:19;16.48;;;6.65;;
82475;SDS011;72099;43.176;76.872;2023-12-28T17:17:22;11.50;;;4.57;;
82475;SDS011;72099;43.176;76.872;2023-12-28T17:20:23;13.88;;;6.03;;
82475;SDS011;72099;43.176;76.872;2023-12-28T17:23:37;11.30;;;5.40;;
82475;SDS011;72099;43.176;76.872;2023-12-28T17:26:46;10.85;;;4.70;;
82475;SDS011;72099;43.176;76.872;2023-12-28T17:29:50;6.85;;;3.75;;
82475;SDS011;72099;43.176;76.872;2023-12-28T17:32:57;10.50;;;4.30;;
82475;SDS011;72099;43.176;76.872;2023-12-28T17:35:59;7.72;;;3.75;;
82475;SDS011;72099;43.176;76.872;2023-12-28T17:39:02;12.23;;;3.80;;
82475;SDS011;72099;43.176;76.872;2023-12-28T17:42:07;10.25;;;4.10;;
82475;SDS011;72099;43.176;76.872;2023-12-28T17:45:10;8.98;;;3.78;;
82475;SDS011;72099;43.176;76.872;2023-12-28T17:48:19;6.10;;;3.30;;
82475;SDS011;72099;43.176;76.872;2023-12-28T17:51:23;11.18;;;3.55;;
82475;SDS011;72099;43.176;76.872;2023-12-28T17:54:28;7.88;;;3.65;;
82475;SDS011;72099;43.176;76.872;2023-12-28T17:57:29;6.53;;;3.40;;
82475;SDS011;72099;43.176;76.872;2023-12-28T18:00:30;7.15;;;3.47;;
82475;SDS011;72099;43.176;76.872;2023-12-28T18:03:31;10.50;;;3.53;;
82475;SDS011;72099;43.176;76.872;2023-12-28T18:06:32;8.43;;;3.25;;
82475;SDS011;72099;43.176;76.872;2023-12-28T18:09:33;8.13;;;3.58;;
82475;SDS011;72099;43.176;76.872;2023-12-28T18:12:36;4.63;;;2.50;;
82475;SDS011;72099;43.176;76.872;2023-12-28T18:15:38;5.13;;;2.95;;
82475;SDS011;72099;43.176;76.872;2023-12-28T18:18:39;5.50;;;2.38;;
82475;SDS011;72099;43.176;76.872;2023-12-28T18:21:40;6.40;;;2.60;;
82475;SDS011;72099;43.176;76.872;2023-12-28T18:24:42;7.85;;;2.58;;
82475;SDS011;72099;43.176;76.872;2023-12-28T18:27:44;5.82;;;2.55;;
82475;SDS011;72099;43.176;76.872;2023-12-28T18:30:44;6.07;;;2.78;;
82475;SDS011;72099;43.176;76.872;2023-12-28T18:33:45;7.72;;;3.13;;
82475;SDS011;72099;43.176;76.872;2023-12-28T18:36:46;7.18;;;2.65;;
82475;SDS011;72099;43.176;76.872;2023-12-28T18:39:49;5.65;;;2.30;;
82475;SDS011;72099;43.176;76.872;2023-12-28T18:42:50;5.72;;;2.83;;
82475;SDS011;72099;43.176;76.872;2023-12-28T18:45:52;4.68;;;2.15;;
82475;SDS011;72099;43.176;76.872;2023-12-28T18:48:53;5.72;;;2.58;;
82475;SDS011;72099;43.176;76.872;2023-12-28T18:54:55;5.72;;;2.33;;
82475;SDS011;72099;43.176;76.872;2023-12-28T18:57:56;6.53;;;2.53;;
82475;SDS011;72099;43.176;76.872;2023-12-28T19:00:57;7.57;;;3.03;;
82475;SDS011;72099;43.176;76.872;2023-12-28T19:03:59;6.10;;;2.80;;
82475;SDS011;72099;43.176;76.872;2023-12-28T19:07:00;8.25;;;3.03;;
82475;SDS011;72099;43.176;76.872;2023-12-28T19:10:00;6.93;;;3.10;;
82475;SDS011;72099;43.176;76.872;2023-12-28T19:13:01;9.32;;;3.40;;
82475;SDS011;72099;43.176;76.872;2023-12-28T19:16:02;4.95;;;2.80;;
82475;SDS011;72099;43.176;76.872;2023-12-28T19:19:05;8.90;;;3.33;;
82475;SDS011;72099;43.176;76.872;2023-12-28T19:22:05;7.47;;;3.25;;
82475;SDS011;72099;43.176;76.872;2023-12-28T19:25:06;7.85;;;3.83;;
82475;SDS011;72099;43.176;76.872;2023-12-28T19:28:07;9.40;;;3.45;;
82475;SDS011;72099;43.176;76.872;2023-12-28T19:31:08;7.00;;;3.80;;
82475;SDS011;72099;43.176;76.872;2023-12-28T19:34:09;8.13;;;3.63;;
82475;SDS011;72099;43.176;76.872;2023-12-28T19:37:10;9.90;;;3.88;;
82475;SDS011;72099;43.176;76.872;2023-12-28T19:40:11;7.20;;;2.83;;
82475;SDS011;72099;43.176;76.872;2023-12-28T19:43:12;6.93;;;3.08;;
82475;SDS011;72099;43.176;76.872;2023-12-28T19:46:13;4.15;;;2.08;;
82475;SDS011;72099;43.176;76.872;2023-12-28T19:49:14;3.25;;;1.85;;
82475;SDS011;72099;43.176;76.872;2023-12-28T19:52:15;3.88;;;2.00;;
82475;SDS011;72099;43.176;76.872;2023-12-28T19:55:19;3.50;;;2.20;;
82475;SDS011;72099;43.176;76.872;2023-12-28T19:58:19;3.55;;;1.77;;
82475;SDS011;72099;43.176;76.872;2023-12-28T20:01:20;4.45;;;1.50;;
82475;SDS011;72099;43.176;76.872;2023-12-28T20:04:21;1.77;;;0.90;;
82475;SDS011;72099;43.176;76.872;2023-12-28T20:07:22;1.77;;;1.20;;
82475;SDS011;72099;43.176;76.872;2023-12-28T20:10:23;2.30;;;1.30;;
82475;SDS011;72099;43.176;76.872;2023-12-28T20:13:25;3.53;;;1.52;;
82475;SDS011;72099;43.176;76.872;2023-12-28T20:16:25;1.88;;;1.10;;
82475;SDS011;72099;43.176;76.872;2023-12-28T20:19:26;1.58;;;1.08;;
82475;SDS011;72099;43.176;76.872;2023-12-28T20:22:27;2.97;;;1.48;;
82475;SDS011;72099;43.176;76.872;2023-12-28T20:25:28;1.60;;;0.95;;
82475;SDS011;72099;43.176;76.872;2023-12-28T20:28:32;1.48;;;1.00;;
82475;SDS011;72099;43.176;76.872;2023-12-28T20:31:33;3.08;;;1.30;;
82475;SDS011;72099;43.176;76.872;2023-12-28T20:34:35;1.52;;;0.82;;
82475;SDS011;72099;43.176;76.872;2023-12-28T20:37:35;1.13;;;0.77;;
82475;SDS011;72099;43.176;76.872;2023-12-28T20:40:36;1.08;;;0.85;;
82475;SDS011;72099;43.176;76.872;2023-12-28T20:43:37;1.75;;;0.82;;
82475;SDS011;72099;43.176;76.872;2023-12-28T20:46:38;2.67;;;0.85;;
82475;SDS011;72099;43.176;76.872;2023-12-28T20:49:39;1.55;;;0.90;;
82475;SDS011;72099;43.176;76.872;2023-12-28T20:52:40;1.42;;;0.90;;
82475;SDS011;72099;43.176;76.872;2023-12-28T20:55:41;1.95;;;0.80;;
82475;SDS011;72099;43.176;76.872;2023-12-28T20:58:42;2.60;;;0.73;;
82475;SDS011;72099;43.176;76.872;2023-12-28T21:01:44;0.93;;;0.70;;
82475;SDS011;72099;43.176;76.872;2023-12-28T21:04:45;0.40;;;0.40;;
82475;SDS011;72099;43.176;76.872;2023-12-28T21:07:46;1.40;;;0.80;;
82475;SDS011;72099;43.176;76.872;2023-12-28T21:10:46;0.60;;;0.50;;
82475;SDS011;72099;43.176;76.872;2023-12-28T21:13:47;0.85;;;0.35;;
82475;SDS011;72099;43.176;76.872;2023-12-28T21:16:59;1.42;;;0.70;;
82475;SDS011;72099;43.176;76.872;2023-12-28T21:20:00;1.23;;;0.47;;
82475;SDS011;72099;43.176;76.872;2023-12-28T21:23:01;0.68;;;0.35;;